createdAt,value
2019-03-01T00:00:49.487Z,2.77
2019-03-01T00:03:15.326Z,2.70
2019-03-01T00:05:51.232Z,2.30
2019-03-01T00:08:17.468Z,2.95
2019-03-01T00:10:58.635Z,2.22
2019-03-01T00:13:37.356Z,1.95
2019-03-01T00:16:27.237Z,2.80
2019-03-01T00:19:21.617Z,2.72
2019-03-01T00:21:57.248Z,2.30
2019-03-01T00:24:55.836Z,2.55
2019-03-01T00:27:31.813Z,2.55
2019-03-01T00:30:10.631Z,2.22
2019-03-01T00:33:01.355Z,2.25
2019-03-01T00:35:30.991Z,2.55
2019-03-01T00:38:20.721Z,1.92
2019-03-01T00:40:59.401Z,2.08
2019-03-01T00:43:34.759Z,1.65
2019-03-01T00:46:00.569Z,1.98
2019-03-01T00:48:26.370Z,2.07
2019-03-01T00:50:52.194Z,2.30
2019-03-01T00:53:19.137Z,1.70
2019-03-01T00:55:44.959Z,1.80
2019-03-01T00:58:10.764Z,1.10
2019-03-01T01:00:40.363Z,1.80
2019-03-01T01:03:06.429Z,1.30
2019-03-01T01:05:32.475Z,1.52
2019-03-01T01:07:58.313Z,1.10
2019-03-01T01:10:24.128Z,0.90
2019-03-01T01:12:50.051Z,1.00
2019-03-01T01:15:15.992Z,1.20
2019-03-01T01:17:41.803Z,0.90
2019-03-01T01:20:08.224Z,1.10
2019-03-01T01:22:35.063Z,1.10
2019-03-01T01:25:01.158Z,1.10
2019-03-01T01:27:26.987Z,1.20
2019-03-01T01:29:53.067Z,1.40
2019-03-01T01:32:18.904Z,1.50
2019-03-01T01:34:44.721Z,1.20
2019-03-01T01:37:10.562Z,1.50
2019-03-01T01:39:36.442Z,1.10
2019-03-01T01:42:02.351Z,0.90
2019-03-01T01:44:28.442Z,1.10
2019-03-01T01:46:54.241Z,1.10
2019-03-01T01:49:20.084Z,0.80
2019-03-01T01:51:45.887Z,0.80
2019-03-01T01:54:11.708Z,1.37
2019-03-01T01:56:37.499Z,0.83
2019-03-01T01:59:03.348Z,1.00
2019-03-01T02:01:29.442Z,1.40
2019-03-01T02:03:55.538Z,1.07
2019-03-01T02:06:21.322Z,0.80
2019-03-01T02:08:47.376Z,1.00
2019-03-01T02:11:13.179Z,0.85
2019-03-01T02:13:39.319Z,1.33
2019-03-01T02:16:05.108Z,0.93
2019-03-01T02:18:31.041Z,0.90
2019-03-01T02:20:57.155Z,0.90
2019-03-01T02:23:22.977Z,1.17
2019-03-01T02:25:49.014Z,1.33
2019-03-01T02:28:14.823Z,1.32
2019-03-01T02:30:46.526Z,1.10
2019-03-01T02:33:12.621Z,1.10
2019-03-01T02:35:38.457Z,1.02
2019-03-01T02:38:04.264Z,1.00
2019-03-01T02:40:35.074Z,0.87
2019-03-01T02:43:00.886Z,1.40
2019-03-01T02:45:26.689Z,0.93
2019-03-01T02:47:52.750Z,1.37
2019-03-01T02:50:19.743Z,1.05
2019-03-01T02:52:45.616Z,1.60
2019-03-01T02:55:13.941Z,1.30
2019-03-01T02:57:39.808Z,1.20
2019-03-01T03:00:15.274Z,1.00
2019-03-01T03:02:41.156Z,1.40
2019-03-01T03:05:07.135Z,1.10
2019-03-01T03:07:34.812Z,1.85
2019-03-01T03:10:00.906Z,1.30
2019-03-01T03:12:26.695Z,1.00
2019-03-01T03:14:52.541Z,1.10
2019-03-01T03:17:18.326Z,1.77
2019-03-01T03:19:44.136Z,1.47
2019-03-01T03:22:10.351Z,1.27
2019-03-01T03:24:36.151Z,1.42
2019-03-01T03:27:01.934Z,1.30
2019-03-01T03:29:27.759Z,1.43
2019-03-01T03:31:57.116Z,1.63
2019-03-01T03:34:22.904Z,1.50
2019-03-01T03:36:48.969Z,0.87
2019-03-01T03:39:14.785Z,1.30
2019-03-01T03:41:40.598Z,1.43
2019-03-01T03:44:09.296Z,1.30
2019-03-01T03:46:35.127Z,1.07
2019-03-01T03:49:03.944Z,1.33
2019-03-01T03:51:29.737Z,1.27
2019-03-01T03:53:58.640Z,0.87
2019-03-01T03:56:24.436Z,0.85
2019-03-01T03:58:53.484Z,1.00
2019-03-01T04:01:19.321Z,0.80
2019-03-01T04:03:48.021Z,1.00
2019-03-01T04:06:13.844Z,0.78
2019-03-01T04:08:42.537Z,0.80
2019-03-01T04:11:08.340Z,2.25
2019-03-01T04:13:34.209Z,0.80
2019-03-01T04:16:00.212Z,1.40
2019-03-01T04:18:26.026Z,0.95
2019-03-01T04:20:54.856Z,1.00
2019-03-01T04:23:20.904Z,0.95
2019-03-01T04:25:46.831Z,0.80
2019-03-01T04:28:12.936Z,0.80
2019-03-01T04:30:44.078Z,0.80
2019-03-01T04:33:09.891Z,0.98
2019-03-01T04:35:36.986Z,0.80
2019-03-01T04:38:02.790Z,0.70
2019-03-01T04:40:31.483Z,0.90
2019-03-01T04:42:57.529Z,0.82
2019-03-01T04:45:26.130Z,0.80
2019-03-01T04:47:52.030Z,0.90
2019-03-01T04:50:17.864Z,0.70
2019-03-01T04:52:43.889Z,1.20
2019-03-01T04:55:13.100Z,1.55
2019-03-01T04:57:38.905Z,1.00
2019-03-01T05:00:08.495Z,1.00
2019-03-01T05:02:34.613Z,1.10
2019-03-01T05:05:00.412Z,0.80
2019-03-01T05:07:29.279Z,0.83
2019-03-01T05:09:55.650Z,0.90
2019-03-01T05:12:24.341Z,0.90
2019-03-01T05:14:50.129Z,1.12
2019-03-01T05:17:18.769Z,0.80
2019-03-01T05:19:44.846Z,0.90
2019-03-01T05:22:13.842Z,0.70
2019-03-01T05:24:39.623Z,0.60
2019-03-01T05:27:05.737Z,0.70
2019-03-01T05:29:31.541Z,0.60
2019-03-01T05:31:57.355Z,0.80
2019-03-01T05:34:23.140Z,0.90
2019-03-01T05:36:48.954Z,1.00
2019-03-01T05:39:17.135Z,1.40
2019-03-01T05:41:42.934Z,0.90
2019-03-01T05:44:15.938Z,1.10
2019-03-01T05:46:42.055Z,0.70
2019-03-01T05:49:07.868Z,0.60
2019-03-01T05:51:33.955Z,0.80
2019-03-01T05:54:03.164Z,0.70
2019-03-01T05:56:29.094Z,0.50
2019-03-01T05:59:04.514Z,0.80
2019-03-01T06:01:34.041Z,0.50
2019-03-01T06:04:06.118Z,0.60
2019-03-01T06:06:47.914Z,0.60
2019-03-01T06:09:30.014Z,0.75
2019-03-01T06:12:23.121Z,0.70
2019-03-01T06:15:15.584Z,0.90
2019-03-01T06:17:56.754Z,0.95
2019-03-01T06:20:40.973Z,1.00
2019-03-01T06:23:23.088Z,0.80
2019-03-01T06:26:10.669Z,0.70
2019-03-01T06:28:43.111Z,1.00
2019-03-01T06:31:47.021Z,1.02
2019-03-01T06:34:35.414Z,1.20
2019-03-01T06:37:10.777Z,2.77
2019-03-01T06:39:50.683Z,1.90
2019-03-01T06:42:38.943Z,0.90
2019-03-01T06:45:29.448Z,1.10
2019-03-01T06:47:55.263Z,0.85
2019-03-01T06:50:23.381Z,0.70
2019-03-01T06:52:49.478Z,0.80
2019-03-01T06:55:28.356Z,0.70
2019-03-01T06:57:54.144Z,0.80
2019-03-01T07:00:20.138Z,1.07
2019-03-01T07:02:47.574Z,1.42
2019-03-01T07:05:13.414Z,0.80
2019-03-01T07:07:39.215Z,1.00
2019-03-01T07:10:06.934Z,0.90
2019-03-01T07:12:32.743Z,0.88
2019-03-01T07:14:58.570Z,0.80
2019-03-01T07:17:24.446Z,0.90
2019-03-01T07:19:50.263Z,0.80
2019-03-01T07:22:16.048Z,1.33
2019-03-01T07:24:41.881Z,0.80
2019-03-01T07:27:07.678Z,0.70
2019-03-01T07:29:33.526Z,1.00
2019-03-01T07:31:59.328Z,0.50
2019-03-01T07:34:30.859Z,0.70
2019-03-01T07:36:56.952Z,0.62
2019-03-01T07:39:22.832Z,0.75
2019-03-01T07:41:49.560Z,0.77
2019-03-01T07:44:18.599Z,0.70
2019-03-01T07:46:52.736Z,0.70
2019-03-01T07:49:14.841Z,0.70
2019-03-01T07:51:40.654Z,0.80
2019-03-01T07:54:06.457Z,0.63
2019-03-01T07:56:37.027Z,0.80
2019-03-01T07:59:01.880Z,0.65
2019-03-01T08:01:29.212Z,0.60
2019-03-01T08:03:55.411Z,0.70
2019-03-01T08:06:21.248Z,0.60
2019-03-01T08:08:47.215Z,0.50
2019-03-01T08:11:15.871Z,0.60
2019-03-01T08:13:41.960Z,0.60
2019-03-01T08:16:10.928Z,0.80
2019-03-01T08:18:40.139Z,1.00
2019-03-01T08:21:06.488Z,1.95
2019-03-01T08:23:35.078Z,0.82
2019-03-01T08:26:00.197Z,0.57
2019-03-01T08:28:25.980Z,1.10
2019-03-01T08:30:51.779Z,1.10
2019-03-01T08:33:17.582Z,0.60
2019-03-01T08:35:43.394Z,0.70
2019-03-01T08:38:09.588Z,0.70
2019-03-01T08:40:35.358Z,0.60
2019-03-01T08:43:04.447Z,1.00
2019-03-01T08:45:32.982Z,0.70
2019-03-01T08:48:00.896Z,0.70
2019-03-01T08:50:26.705Z,0.60
2019-03-01T08:52:53.659Z,0.70
2019-03-01T08:55:22.981Z,1.20
2019-03-01T08:57:49.021Z,1.00
2019-03-01T09:00:28.190Z,0.70
2019-03-01T09:02:59.866Z,8.00
2019-03-01T09:05:25.969Z,10.30
2019-03-01T09:07:51.782Z,4.70
2019-03-01T09:10:17.891Z,1.77
2019-03-01T09:12:43.725Z,1.32
2019-03-01T09:15:11.881Z,0.87
2019-03-01T09:17:37.674Z,1.50
2019-03-01T09:20:07.348Z,0.87
2019-03-01T09:22:37.689Z,1.40
2019-03-01T09:25:07.606Z,0.60
2019-03-01T09:27:33.407Z,0.60
2019-03-01T09:30:03.411Z,0.80
2019-03-01T09:32:26.891Z,0.62
2019-03-01T09:34:54.622Z,0.60
2019-03-01T09:37:20.489Z,0.70
2019-03-01T09:39:46.322Z,0.90
2019-03-01T09:42:15.447Z,0.80
2019-03-01T09:44:40.198Z,1.15
2019-03-01T09:47:06.118Z,0.80
2019-03-01T09:49:31.905Z,0.73
2019-03-01T09:51:58.481Z,0.80
2019-03-01T09:54:24.895Z,0.75
2019-03-01T09:56:51.412Z,1.10
2019-03-01T09:59:17.970Z,0.80
2019-03-01T10:01:44.072Z,0.82
2019-03-01T10:04:09.934Z,0.70
2019-03-01T10:06:38.324Z,0.60
2019-03-01T10:09:07.295Z,0.82
2019-03-01T10:11:33.371Z,0.70
2019-03-01T10:13:59.503Z,0.50
2019-03-01T10:16:25.547Z,0.72
2019-03-01T10:18:51.353Z,3.67
2019-03-01T10:21:17.377Z,12.73
2019-03-01T10:23:43.193Z,15.72
2019-03-01T10:26:09.033Z,2.60
2019-03-01T10:28:34.842Z,1.03
2019-03-01T10:31:01.229Z,0.80
2019-03-01T10:33:27.143Z,2.83
2019-03-01T10:35:53.120Z,0.90
2019-03-01T10:38:18.947Z,0.97
2019-03-01T10:40:44.782Z,1.20
2019-03-01T10:43:10.638Z,0.80
2019-03-01T10:45:36.462Z,0.90
2019-03-01T10:48:05.299Z,1.00
2019-03-01T10:50:31.348Z,1.15
2019-03-01T10:53:00.247Z,1.47
2019-03-01T10:55:26.340Z,0.75
2019-03-01T10:57:52.405Z,0.93
2019-03-01T11:00:26.773Z,1.37
2019-03-01T11:02:53.688Z,1.30
2019-03-01T11:05:19.611Z,1.10
2019-03-01T11:07:46.339Z,1.50
2019-03-01T11:10:15.960Z,1.40
2019-03-01T11:12:42.037Z,1.10
2019-03-01T11:15:09.858Z,1.40
2019-03-01T11:17:35.795Z,1.40
2019-03-01T11:20:03.296Z,1.40
2019-03-01T11:22:30.267Z,1.92
2019-03-01T11:24:56.058Z,1.75
2019-03-01T11:27:21.978Z,1.33
2019-03-01T11:29:48.058Z,1.63
2019-03-01T11:32:13.887Z,2.80
2019-03-01T11:34:39.700Z,2.33
2019-03-01T11:37:05.524Z,1.60
2019-03-01T11:39:31.709Z,3.23
2019-03-01T11:41:57.803Z,2.90
2019-03-01T11:44:23.605Z,1.45
2019-03-01T11:46:52.193Z,2.07
2019-03-01T11:49:18.022Z,2.10
2019-03-01T11:51:46.717Z,2.20
2019-03-01T11:54:12.502Z,1.70
2019-03-01T11:56:41.301Z,1.57
2019-03-01T11:59:07.307Z,2.05
2019-03-01T12:01:36.121Z,2.17
2019-03-01T12:04:01.938Z,1.72
2019-03-01T12:06:30.875Z,2.70
2019-03-01T12:08:56.932Z,1.60
2019-03-01T12:11:22.757Z,1.90
2019-03-01T12:13:48.546Z,1.80
2019-03-01T12:16:14.362Z,1.37
2019-03-01T12:18:43.499Z,1.60
2019-03-01T12:21:09.572Z,1.65
2019-03-01T12:23:38.121Z,1.32
2019-03-01T12:26:04.287Z,2.00
2019-03-01T12:28:32.838Z,1.60
2019-03-01T12:30:58.647Z,2.08
2019-03-01T12:33:26.230Z,2.80
2019-03-01T12:35:52.047Z,2.08
2019-03-01T12:38:23.093Z,4.03
2019-03-01T12:40:48.869Z,2.17
2019-03-01T12:43:17.545Z,2.60
2019-03-01T12:45:43.365Z,3.00
2019-03-01T12:48:09.167Z,3.80
2019-03-01T12:50:35.222Z,3.70
2019-03-01T12:53:01.076Z,3.33
2019-03-01T12:55:30.510Z,3.43
2019-03-01T12:57:56.298Z,4.22
2019-03-01T13:00:28.725Z,4.13
2019-03-01T13:02:54.508Z,4.20
2019-03-01T13:05:20.599Z,4.70
2019-03-01T13:07:46.416Z,4.70
2019-03-01T13:10:36.923Z,4.50
2019-03-01T13:13:07.967Z,4.45
2019-03-01T13:15:31.265Z,3.83
2019-03-01T13:17:57.346Z,4.33
2019-03-01T13:20:23.142Z,4.50
2019-03-01T13:22:49.335Z,5.03
2019-03-01T13:25:15.788Z,4.03
2019-03-01T13:27:41.668Z,3.90
2019-03-01T13:30:15.946Z,3.10
2019-03-01T13:32:42.101Z,3.60
2019-03-01T13:35:12.466Z,4.37
2019-03-01T13:37:38.133Z,3.90
2019-03-01T13:40:07.596Z,4.77
2019-03-01T13:42:33.414Z,5.25
2019-03-01T13:44:59.470Z,4.77
2019-03-01T13:47:25.281Z,5.17
2019-03-01T13:49:51.368Z,5.70
2019-03-01T13:52:17.301Z,5.55
2019-03-01T13:54:45.425Z,5.90
2019-03-01T13:57:12.215Z,6.92
2019-03-01T13:59:40.377Z,6.87
2019-03-01T14:02:07.571Z,7.67
2019-03-01T14:04:36.626Z,7.10
2019-03-01T14:07:01.557Z,6.90
2019-03-01T14:09:28.078Z,7.37
2019-03-01T14:11:55.884Z,9.00
2019-03-01T14:14:26.604Z,8.30
2019-03-01T14:16:49.701Z,7.90
2019-03-01T14:19:15.524Z,6.42
2019-03-01T14:21:41.627Z,7.90
2019-03-01T14:24:07.707Z,7.85
2019-03-01T14:26:33.529Z,8.45
2019-03-01T14:28:59.339Z,8.10
2019-03-01T14:31:25.164Z,7.27
2019-03-01T14:33:51.692Z,6.23
2019-03-01T14:36:17.666Z,7.03
2019-03-01T14:38:43.497Z,8.03
2019-03-01T14:41:09.279Z,6.53
2019-03-01T14:43:35.364Z,8.07
2019-03-01T14:46:01.189Z,7.33
2019-03-01T14:48:27.292Z,6.53
2019-03-01T14:50:53.338Z,5.95
2019-03-01T14:53:19.132Z,6.55
2019-03-01T14:55:58.953Z,7.30
2019-03-01T14:58:32.209Z,7.58
2019-03-01T15:01:07.551Z,6.70
2019-03-01T15:03:35.309Z,6.75
2019-03-01T15:06:01.569Z,7.40
2019-03-01T15:08:27.316Z,7.30
2019-03-01T15:10:53.099Z,6.67
2019-03-01T15:13:18.992Z,10.80
2019-03-01T15:15:44.842Z,7.60
2019-03-01T15:18:10.637Z,7.10
2019-03-01T15:20:37.085Z,6.70
2019-03-01T15:23:03.004Z,6.55
2019-03-01T15:25:28.831Z,7.67
2019-03-01T15:27:54.650Z,7.60
2019-03-01T15:30:20.444Z,6.43
2019-03-01T15:32:46.227Z,8.07
2019-03-01T15:35:12.479Z,6.63
2019-03-01T15:37:38.722Z,6.72
2019-03-01T15:40:07.503Z,8.05
2019-03-01T15:42:33.304Z,8.63
2019-03-01T15:45:01.654Z,9.50
2019-03-01T15:47:27.468Z,7.42
2019-03-01T15:49:53.299Z,9.25
2019-03-01T15:52:19.128Z,9.33
2019-03-01T15:54:45.441Z,9.93
2019-03-01T15:57:11.255Z,10.10
2019-03-01T15:59:37.050Z,9.43
2019-03-01T16:02:02.831Z,9.43
2019-03-01T16:04:30.425Z,11.83
2019-03-01T16:06:56.562Z,11.10
2019-03-01T16:09:25.343Z,11.00
2019-03-01T16:11:53.139Z,11.88
2019-03-01T16:14:21.096Z,11.78
2019-03-01T16:16:49.190Z,13.35
2019-03-01T16:19:14.563Z,13.53
2019-03-01T16:21:43.029Z,13.25
2019-03-01T16:24:08.953Z,13.45
2019-03-01T16:26:36.395Z,12.93
2019-03-01T16:32:31.501Z,12.43
2019-03-01T16:34:57.584Z,11.93
2019-03-01T16:37:26.112Z,14.45
2019-03-01T16:39:51.398Z,14.50
2019-03-01T16:42:17.984Z,12.90
2019-03-01T16:44:45.447Z,12.78
2019-03-01T16:47:11.626Z,13.85
2019-03-01T16:49:37.434Z,13.10
2019-03-01T16:52:03.247Z,14.77
2019-03-01T16:54:29.053Z,13.50
2019-03-01T16:56:54.880Z,14.67
2019-03-01T16:59:20.663Z,13.90
2019-03-01T17:01:46.506Z,14.53
2019-03-01T17:04:12.309Z,13.70
2019-03-01T17:06:38.502Z,15.80
2019-03-01T17:09:04.833Z,20.72
2019-03-01T17:11:33.743Z,13.20
2019-03-01T17:14:02.635Z,14.35
2019-03-01T17:16:30.532Z,14.85
2019-03-01T17:18:56.571Z,15.30
2019-03-01T17:21:22.473Z,12.98
2019-03-01T17:23:48.301Z,12.30
2019-03-01T17:26:14.128Z,13.77
2019-03-01T17:28:39.927Z,12.90
2019-03-01T17:31:05.850Z,11.33
2019-03-01T17:33:34.309Z,11.90
2019-03-01T17:36:00.348Z,11.65
2019-03-01T17:38:29.493Z,10.40
2019-03-01T17:40:55.593Z,12.98
2019-03-01T17:43:26.025Z,11.78
2019-03-01T17:45:54.384Z,12.73
2019-03-01T17:48:22.258Z,11.60
2019-03-01T17:50:48.300Z,13.05
2019-03-01T17:53:14.287Z,12.68
2019-03-01T17:55:40.454Z,10.78
2019-03-01T17:58:09.719Z,13.50
2019-03-01T18:00:37.083Z,12.88
2019-03-01T18:03:03.663Z,14.70
2019-03-01T18:05:29.671Z,13.20
2019-03-01T18:07:55.591Z,13.40
2019-03-01T18:10:21.924Z,12.30
2019-03-01T18:12:47.749Z,12.95
2019-03-01T18:15:16.554Z,15.67
2019-03-01T18:17:42.375Z,16.52
2019-03-01T18:20:12.075Z,19.50
2019-03-01T18:22:38.531Z,15.48
2019-03-01T18:25:08.415Z,16.25
2019-03-01T18:27:34.212Z,18.40
2019-03-01T18:30:00.400Z,18.00
2019-03-01T18:32:26.425Z,17.15
2019-03-01T18:34:55.287Z,17.98
2019-03-01T18:37:21.107Z,17.55
2019-03-01T18:39:47.232Z,18.30
2019-03-01T18:42:13.049Z,20.00
2019-03-01T18:44:38.852Z,19.43
2019-03-01T18:47:07.907Z,20.67
2019-03-01T18:49:33.715Z,24.67
2019-03-01T18:51:59.551Z,21.60
2019-03-01T18:54:25.668Z,24.80
2019-03-01T18:56:56.480Z,24.07
2019-03-01T18:59:24.865Z,25.45
2019-03-01T19:01:50.110Z,24.95
2019-03-01T19:04:16.812Z,24.47
2019-03-01T19:06:43.619Z,22.65
2019-03-01T19:09:12.628Z,25.20
2019-03-01T19:11:40.270Z,28.10
2019-03-01T19:14:06.171Z,24.30
2019-03-01T19:16:31.983Z,24.60
2019-03-01T19:18:57.779Z,25.57
2019-03-01T19:21:23.614Z,27.00
2019-03-01T19:23:52.741Z,26.00
2019-03-01T19:26:18.558Z,25.35
2019-03-01T19:28:47.560Z,24.20
2019-03-01T19:31:13.366Z,23.95
2019-03-01T19:33:42.875Z,24.60
2019-03-01T19:36:08.669Z,26.57
2019-03-01T19:38:34.503Z,24.20
2019-03-01T19:41:00.566Z,26.23
2019-03-01T19:43:31.220Z,24.52
2019-03-01T19:45:57.122Z,23.10
2019-03-01T19:48:26.247Z,26.17
2019-03-01T19:50:52.177Z,24.52
2019-03-01T19:53:17.995Z,24.50
2019-03-01T19:55:43.981Z,27.97
2019-03-01T19:58:12.060Z,23.25
2019-03-01T20:00:39.187Z,23.73
2019-03-01T20:03:09.998Z,22.70
2019-03-01T20:05:39.184Z,22.80
2019-03-01T20:08:05.027Z,22.27
2019-03-01T20:10:30.822Z,20.37
2019-03-01T20:12:56.657Z,21.90
2019-03-01T20:15:26.486Z,21.10
2019-03-01T20:17:52.401Z,23.05
2019-03-01T20:20:20.353Z,19.97
2019-03-01T20:22:46.416Z,23.07
2019-03-01T20:25:15.996Z,21.15
2019-03-01T20:27:42.167Z,21.45
2019-03-01T20:30:33.055Z,22.30
2019-03-01T20:32:59.208Z,19.05
2019-03-01T20:35:26.058Z,22.70
2019-03-01T20:37:52.131Z,21.62
2019-03-01T20:40:18.036Z,21.90
2019-03-01T20:42:43.951Z,21.27
2019-03-01T20:45:25.936Z,24.67
2019-03-01T20:47:53.535Z,25.05
2019-03-01T20:50:20.368Z,23.20
2019-03-01T20:52:46.461Z,24.18
2019-03-01T20:55:12.846Z,35.48
2019-03-01T20:57:38.901Z,25.65
2019-03-01T21:00:14.171Z,20.80
2019-03-01T21:02:40.274Z,22.95
2019-03-01T21:05:09.776Z,23.55
2019-03-01T21:07:35.678Z,25.57
2019-03-01T21:10:03.564Z,22.97
2019-03-01T21:12:29.374Z,23.87
2019-03-01T21:14:55.196Z,26.00
2019-03-01T21:17:21.633Z,20.83
2019-03-01T21:19:47.552Z,22.75
2019-03-01T21:22:13.328Z,22.10
2019-03-01T21:24:39.127Z,23.10
2019-03-01T21:27:04.952Z,24.23
2019-03-01T21:29:30.751Z,24.37
2019-03-01T21:31:56.605Z,25.27
2019-03-01T21:34:22.422Z,24.30
2019-03-01T21:36:48.238Z,22.00
2019-03-01T21:39:14.069Z,22.63
2019-03-01T21:41:41.489Z,23.43
2019-03-01T21:44:10.568Z,23.12
2019-03-01T21:46:35.593Z,21.77
2019-03-01T21:49:01.558Z,21.80
2019-03-01T21:51:27.424Z,20.75
2019-03-01T21:53:53.509Z,23.10
2019-03-01T21:56:19.309Z,23.22
2019-03-01T21:58:45.419Z,39.23
2019-03-01T22:01:11.238Z,31.07
2019-03-01T22:03:37.060Z,22.73
2019-03-01T22:06:02.966Z,22.83
2019-03-01T22:08:29.134Z,23.20
2019-03-01T22:10:54.931Z,24.82
2019-03-01T22:13:21.036Z,26.20
2019-03-01T22:15:46.826Z,25.02
2019-03-01T22:18:12.909Z,24.50
2019-03-01T22:20:41.582Z,26.70
2019-03-01T22:23:10.209Z,25.82
2019-03-01T22:25:37.874Z,24.75
2019-03-01T22:28:02.410Z,23.07
2019-03-01T22:30:30.690Z,23.70
2019-03-01T22:32:56.515Z,26.00
2019-03-01T22:35:22.575Z,22.40
2019-03-01T22:37:48.398Z,23.95
2019-03-01T22:40:14.228Z,26.37
2019-03-01T22:42:40.077Z,25.83
2019-03-01T22:45:10.362Z,25.33
2019-03-01T22:47:37.093Z,25.00
2019-03-01T22:50:06.988Z,25.00
2019-03-01T22:52:33.639Z,25.55
2019-03-01T22:55:01.615Z,25.30
2019-03-01T22:57:27.442Z,23.30
2019-03-01T22:59:53.251Z,23.73
2019-03-01T23:02:20.087Z,25.47
2019-03-01T23:04:46.260Z,22.62
2019-03-01T23:07:12.069Z,25.97
2019-03-01T23:09:37.851Z,23.50
2019-03-01T23:12:04.761Z,23.07
2019-03-01T23:14:31.993Z,23.62
2019-03-01T23:16:58.131Z,25.57
2019-03-01T23:19:24.192Z,22.13
2019-03-01T23:21:50.027Z,23.42
2019-03-01T23:24:15.841Z,24.10
2019-03-01T23:26:41.632Z,23.77
2019-03-01T23:29:07.480Z,25.37
2019-03-01T23:31:35.625Z,25.50
2019-03-01T23:34:03.612Z,24.67
2019-03-01T23:36:29.747Z,26.25
2019-03-01T23:38:55.925Z,24.90
2019-03-01T23:41:21.726Z,23.77
2019-03-01T23:43:47.573Z,24.83
2019-03-01T23:46:13.653Z,24.20
2019-03-01T23:48:39.746Z,25.25
2019-03-01T23:51:06.618Z,26.20
2019-03-01T23:53:34.084Z,22.55
2019-03-01T23:56:00.042Z,22.42
2019-03-01T23:58:25.857Z,26.13
